Create Custom Reports and Graphics: Custom Report

Lodi Weather Stations Latest Observations

Map

15 Minute Data

Lodi West

10 Stations

15 Minute Data | America/Los_Angeles
as of 5/25/20 4:58 PM PDT
Station Date Time Temp (°F) Dew Pt (°F) RH (%) Wind Spd (mph) Wind Dir (°) Wind Gust (mph) Latest Rain (In) Daily Rain (In) Daily Min Temp (°F) Daily Max Temp (°F)
Guard Rd (Lodi WSW) 5/25/20 1645 97.3   5.5 54.6   10.3 24   5 1.6   2.0 W | 274 4.4   5.7 0.00 0.00 51.9   5.6 97.7   5.7
Utter - Wilson 5/25/20 1645 102.5   8.5 50.4   7.3 18   0 1.8   4.0 NNE | 24 4.0   6.8 0.00 0.00 54.2   6.3 103.6   8.9
Clarksburg 5/25/20 1645 100.1   5.6 49.1   0.5 18   3 0.8   0.5 SW | 229 5.6   3.2 0.00 0.00 52.7   4.8 101.8   6.9
Clarksburg-3A2 5/25/20 1645 99.3   5.9 48.9   11.3 18   4 3.4   5.0 SSE | 155 6.9   7.7 0.00 0.00 51.0   2.5 100.3   6.6
Gorter - Wilson 5/25/20 1645 98.6   6.2 52.5   8.9 22   3 2.3   3.1 SE | 130 4.3   6.1 0.00 0.00 50.9   6.5 100.8   7.0
Hood 5/25/20 1645 95.5   5.0 58.6   14.4 29   9 2.3   1.5 SSW | 208 5.0   2.5 0.00 0.00 52.0   6.6 98.4   7.6
Courtland-C3 5/25/20 1645 97.5   6.4 50.1   9.8 20   3 3.4   4.4 WSW | 243 8.1   4.8 0.00 0.00 54.8   5.6 98.6   5.9
Pacific Fruit 5/25/20 1645 99.8   6.4 55.8   9.6 23   3 1.0   1.9 NE | 35 3.5   5.3 0.00 0.00 55.1   6.3 100.3   6.1
Ryer Island South 5/25/20 1400 93.3   5.5 48.5   3.7 22   1 4.0   0.5 NW | 317 8.1   2.4 0.00 0.00 54.3   7.3 94.3   5.8
Claussen 5/25/20 1645 97.3   6.0 53.6   5.2 23   0 4.0   1.6 NW | 322 8.7   1.8 0.00 0.00 58.0   9.4 99.3   6.5
Max     102.5 58.6 29 4.0 - 8.7 0.00 0.00 58.0 103.6
Avg     98.7 52.6 22 2.3 - 5.6 0.00 - - -
Min     95.5 48.9 18 0.8 - 3.5 0.00 0.00 50.9 97.7

Lodi Central

9 Stations

15 Minute Data | America/Los_Angeles
as of 5/25/20 4:58 PM PDT
Station Date Time Temp (°F) Dew Pt (°F) RH (%) Wind Dir (°) Wind Spd (mph) Wind Gust (mph) Latest Rain (In) Daily Rain (In) Daily Min Temp (°F) Daily Max Temp (°F)
Galt West 5/25/20 1645 96.0   4.2 53.7   17.5 24   10 SSW | 194 4.4   0.6 8.3   2.5 0.00 0.00 52.4   4.3 96.6   4.6
Valley Oak 5/25/20 1645 96.7   5.1 44.8   7.6 17   2 WSW | 256 2.7   1.6 6.8   2.4 0.00 0.00 52.7   5.4 97.9   4.8
Thornton 5/25/20 1645 96.6   6.2 45.5   10.5 18   3 WNW | 285 1.6   4.4 7.1   3.4 0.00 0.00 52.9   6.1 97.3   5.7
Kost Rd 5/25/20 1645 97.3   6.2 51.3   10.4 21   4 W | 274 2.0   3.1 4.3   5.7 0.00 0.00 53.3   6.0 98.2   6.1
DeVries Road-North 5/25/20 1645 97.0   5.9 52.1   10.1 22   4 SSW | 200 2.5   3.2 5.7   4.4 0.00 0.00 52.8   6.4 99.2   7.0
Lodi (LangeTwins) 5/25/20 1645 97.9   5.6 48.8   9.2 19   3 WNW | 292 2.3   2.4 5.8   4.0 0.00 0.00 54.2   6.4 98.6   5.2
Acampo 5/25/20 1645 97.3   6.3 43.5   9.0 16   2 WSW | 258 1.6   3.4 5.8   4.7 0.00 0.00 54.4   7.1 97.5   6.2
Acampo (Woodbridge) 5/25/20 1645 97.3   6.5 47.2   10.6 18   3 WSW | 255 4.2   5.1 8.9   5.1 0.00 0.00 57.0   7.9 98.3   6.3
Lodi West 5/25/20 1645 97.0   5.5 46.4   8.4 18   3 NW | 316 1.8   1.2 6.1   3.1 0.00 0.00 55.7   7.1 98.1   5.9
Max     97.9 53.7 24 - 4.4 8.9 0.00 0.00 57.0 99.2
Avg     97.0 48.1 19 - 2.6 6.5 0.00 - - -
Min     96.0 43.5 16 - 1.6 4.3 0.00 0.00 52.4 96.6

Lodi South

18 Stations

15 Minute Data | America/Los_Angeles
as of 5/25/20 4:58 PM PDT
Station Date Time Temp (°F) Dew Pt (°F) RH (%) Wind Spd (mph) Wind Dir (°) Wind Gust (mph) Latest Rain (In) Daily Rain (In) Daily Min Temp (°F) Daily Max Temp (°F)
Borden Hills 5/25/20 1645 99.0   6.3 53.7   6.3 22   1 2.6   2.4 SSW | 203 6.0   2.7 0.00 0.00 58.0   7.0 100.4   7.2
Collegeville 5/25/20 1645 96.2   6.4 53.2   8.4 24   3 2.0   3.2 ENE | 69 4.7   6.0 0.00 0.00 54.2   6.5 97.1   7.1
Galt-East 5/25/20 1645 98.1   7.9 45.6   8.4 17   1 2.1   3.2 NE | 46 6.6   4.2 0.00 0.00 53.6   6.9 98.8   8.1
Escalon 5/25/20 1645 97.1   7.1 54.4   7.5 24   2 1.1   2.3 NE | 53 4.2   3.9 0.00 0.00 54.2   7.2 97.9   6.5
Victor - N (Katusha) 5/25/20 1645 96.8   6.6 45.7   10.7 18   3 2.2   1.4 SW | 228 5.8   3.4 0.00 0.00 54.0   6.6 97.6   6.6
Teresi-Alpine Rd (East Lodi) 5/25/20 1645 98.4   7.1 46.7   9.5 17   2 1.7   4.3 NW | 318 6.4   4.5 0.00 0.00 55.7   6.9 98.9   7.0
Gilbeau Ranch 5/25/20 1645 97.9   6.4 42.8   9.6 15   2 2.8   0.6 NW | 316 7.2   0.9 0.00 0.00 54.3   6.3 98.8   6.2
Linden 5/25/20 1645 94.8   4.6 53.4   8.6 25   4 2.1   1.2 S | 185 5.3   1.0 0.00 0.00 51.5   6.3 96.5   6.0
Live Oak 5/25/20 1645 98.1   6.5 52.4   8.8 22   3 2.3   1.2 WNW | 285 6.0   1.7 0.00 0.00 53.7   6.8 99.0   6.8
Lockeford 5/25/20 1645 94.8   4.3 47.2   13.6 20   6 4.1   1.3 SSE | 168 8.8   4.2 0.00 0.00 52.8   6.4 96.0   5.1
Lone Oak-L28 5/25/20 1645 94.8   5.8 57.6   15.0 29   9 2.8   3.1 SSE | 151 5.0   5.2 0.00 0.00 51.0   6.5 96.6   6.8
Colony 1 5/25/20 1645 97.5   6.2 50.3   15.6 21   7 2.3   3.8 SSW | 198 6.3   5.4 0.00 0.00 54.5   6.5 97.9   6.1
Colony 2 5/25/20 1645 97.9   4.2 48.4   9.6 19   4 3.0   1.5 S | 190 6.4   5.5 0.00 0.00 53.6   5.7 99.2   5.0
Sheldon 5/25/20 1645 97.2   6.1 48.5   7.4 19   2 2.3   2.0 S | 174 5.4   5.4 0.00 0.00 52.4   6.2 98.0   6.4
Sierra Loma-L27 5/25/20 1645 97.2   5.7 51.4   9.8 22   4 3.8   3.0 ESE | 119 7.9   6.7 0.00 0.00 56.1   4.7 99.1   6.7
Simmerhorn 5/25/20 1645 96.5   6.6 44.3   9.9 17   3 - - - - - 54.2   6.7 97.3   6.7
Sloughhouse 5/25/20 1645 94.7   6.1 - - 0.7   1.2 WNW | 288 5.4   3.4 0.00 0.00 52.6   6.2 97.7   8.1
5 Wells 5/25/20 1645 96.4   5.7 48.0   11.0 19   4 3.2   2.7 N | 355 6.1   4.0 0.00 0.00 55.9   7.1 98.1   7.1
Max     99.0 57.6 29 4.1 - 8.8 0.00 0.00 58.0 100.4
Avg     96.9 49.6 21 2.4 - 6.1 0.00 - - -
Min     94.7 42.8 15 0.7 - 4.2 0.00 0.00 51.0 96.0

Air Quality (Current)

Map

15 Minute Data